sensor_id;sensor_type;location;lat;lon;timestamp;pressure;altitude;pressure_sealevel;temperature;humidity
74552;BME280;63025;55.472;38.432;2024-03-29T00:01:15;99685.88;;;4.11;100.00
74552;BME280;63025;55.472;38.432;2024-03-29T00:03:40;99676.91;;;4.12;100.00
74552;BME280;63025;55.472;38.432;2024-03-29T00:06:07;99670.28;;;4.07;100.00
74552;BME280;63025;55.472;38.432;2024-03-29T00:08:33;99676.59;;;4.06;100.00
74552;BME280;63025;55.472;38.432;2024-03-29T00:10:58;99670.34;;;3.99;100.00
74552;BME280;63025;55.472;38.432;2024-03-29T00:13:24;99665.38;;;3.96;100.00
74552;BME280;63025;55.472;38.432;2024-03-29T00:15:50;99661.88;;;3.96;100.00
74552;BME280;63025;55.472;38.432;2024-03-29T00:18:16;99653.63;;;3.91;100.00
74552;BME280;63025;55.472;38.432;2024-03-29T00:20:42;99650.63;;;3.94;100.00
74552;BME280;63025;55.472;38.432;2024-03-29T00:23:08;99660.78;;;3.90;100.00
74552;BME280;63025;55.472;38.432;2024-03-29T00:25:33;99646.66;;;3.90;100.00
74552;BME280;63025;55.472;38.432;2024-03-29T00:27:59;99644.66;;;3.92;100.00
74552;BME280;63025;55.472;38.432;2024-03-29T00:30:26;99640.59;;;3.96;100.00
74552;BME280;63025;55.472;38.432;2024-03-29T00:32:52;99638.44;;;3.99;100.00
74552;BME280;63025;55.472;38.432;2024-03-29T00:35:18;99632.13;;;4.00;100.00
74552;BME280;63025;55.472;38.432;2024-03-29T00:37:46;99630.94;;;4.03;100.00
74552;BME280;63025;55.472;38.432;2024-03-29T00:40:11;99635.25;;;4.04;100.00
74552;BME280;63025;55.472;38.432;2024-03-29T00:42:37;99619.47;;;4.02;100.00
74552;BME280;63025;55.472;38.432;2024-03-29T00:45:03;99619.94;;;4.06;100.00
74552;BME280;63025;55.472;38.432;2024-03-29T00:47:30;99618.28;;;4.05;100.00
74552;BME280;63025;55.472;38.432;2024-03-29T00:49:56;99620.31;;;4.03;100.00
74552;BME280;63025;55.472;38.432;2024-03-29T00:52:22;99610.38;;;3.97;100.00
74552;BME280;63025;55.472;38.432;2024-03-29T00:54:47;99601.22;;;3.99;100.00
74552;BME280;63025;55.472;38.432;2024-03-29T00:57:13;99599.66;;;4.05;100.00
74552;BME280;63025;55.472;38.432;2024-03-29T00:59:41;99590.69;;;4.06;100.00
74552;BME280;63025;55.472;38.432;2024-03-29T01:02:09;99591.16;;;4.10;100.00
74552;BME280;63025;55.472;38.432;2024-03-29T01:04:35;99594.66;;;4.10;100.00
74552;BME280;63025;55.472;38.432;2024-03-29T01:07:01;99588.16;;;4.13;100.00
74552;BME280;63025;55.472;38.432;2024-03-29T01:09:27;99577.88;;;4.10;100.00
74552;BME280;63025;55.472;38.432;2024-03-29T01:11:53;99582.00;;;4.12;100.00
74552;BME280;63025;55.472;38.432;2024-03-29T01:14:19;99570.19;;;4.15;100.00
74552;BME280;63025;55.472;38.432;2024-03-29T01:16:45;99575.38;;;4.08;100.00
74552;BME280;63025;55.472;38.432;2024-03-29T01:19:11;99575.38;;;4.08;100.00
74552;BME280;63025;55.472;38.432;2024-03-29T01:21:37;99563.25;;;4.05;100.00
74552;BME280;63025;55.472;38.432;2024-03-29T01:24:03;99568.59;;;4.05;100.00
74552;BME280;63025;55.472;38.432;2024-03-29T01:26:30;99554.75;;;4.10;100.00
74552;BME280;63025;55.472;38.432;2024-03-29T01:28:56;99552.75;;;4.12;100.00
74552;BME280;63025;55.472;38.432;2024-03-29T01:31:22;99552.59;;;4.14;100.00
74552;BME280;63025;55.472;38.432;2024-03-29T01:33:49;99546.31;;;4.06;100.00
74552;BME280;63025;55.472;38.432;2024-03-29T01:36:14;99540.81;;;4.08;100.00
74552;BME280;63025;55.472;38.432;2024-03-29T01:38:40;99538.50;;;4.05;100.00
74552;BME280;63025;55.472;38.432;2024-03-29T01:41:06;99536.69;;;4.05;100.00
74552;BME280;63025;55.472;38.432;2024-03-29T01:43:32;99534.56;;;4.01;100.00
74552;BME280;63025;55.472;38.432;2024-03-29T01:45:58;99537.22;;;4.01;100.00
74552;BME280;63025;55.472;38.432;2024-03-29T01:48:25;99526.25;;;4.04;100.00
74552;BME280;63025;55.472;38.432;2024-03-29T01:50:55;99528.69;;;4.05;100.00
74552;BME280;63025;55.472;38.432;2024-03-29T01:53:21;99531.47;;;4.12;100.00
74552;BME280;63025;55.472;38.432;2024-03-29T01:55:47;99522.03;;;4.10;100.00
74552;BME280;63025;55.472;38.432;2024-03-29T01:58:14;99518.53;;;4.09;100.00
74552;BME280;63025;55.472;38.432;2024-03-29T02:00:52;99514.22;;;4.08;100.00
74552;BME280;63025;55.472;38.432;2024-03-29T02:03:20;99522.03;;;4.10;100.00
74552;BME280;63025;55.472;38.432;2024-03-29T02:05:47;99521.03;;;4.11;100.00
74552;BME280;63025;55.472;38.432;2024-03-29T02:08:14;99513.31;;;4.01;100.00
74552;BME280;63025;55.472;38.432;2024-03-29T02:10:41;99508.25;;;4.06;100.00
74552;BME280;63025;55.472;38.432;2024-03-29T02:13:07;99513.56;;;4.06;100.00
74552;BME280;63025;55.472;38.432;2024-03-29T02:15:33;99508.00;;;4.01;100.00
74552;BME280;63025;55.472;38.432;2024-03-29T02:17:59;99505.16;;;4.02;100.00
74552;BME280;63025;55.472;38.432;2024-03-29T02:20:26;99496.34;;;4.02;100.00
74552;BME280;63025;55.472;38.432;2024-03-29T02:23:05;99493.97;;;4.07;100.00
74552;BME280;63025;55.472;38.432;2024-03-29T02:25:31;99491.78;;;4.11;100.00
74552;BME280;63025;55.472;38.432;2024-03-29T02:27:58;99503.75;;;4.06;100.00
74552;BME280;63025;55.472;38.432;2024-03-29T02:30:25;99488.28;;;4.10;100.00
74552;BME280;63025;55.472;38.432;2024-03-29T02:32:51;99487.09;;;4.13;100.00
74552;BME280;63025;55.472;38.432;2024-03-29T02:35:17;99483.63;;;4.12;100.00
74552;BME280;63025;55.472;38.432;2024-03-29T02:37:42;99476.47;;;4.13;100.00
74552;BME280;63025;55.472;38.432;2024-03-29T02:40:08;99477.56;;;4.03;100.00
74552;BME280;63025;55.472;38.432;2024-03-29T02:42:34;99475.06;;;4.02;100.00
74552;BME280;63025;55.472;38.432;2024-03-29T02:45:02;99477.56;;;4.03;100.00
74552;BME280;63025;55.472;38.432;2024-03-29T02:47:29;99480.00;;;4.05;100.00
74552;BME280;63025;55.472;38.432;2024-03-29T02:49:55;99473.34;;;4.09;100.00
74552;BME280;63025;55.472;38.432;2024-03-29T02:52:21;99474.69;;;4.05;100.00
74552;BME280;63025;55.472;38.432;2024-03-29T02:54:48;99466.19;;;4.10;100.00
74552;BME280;63025;55.472;38.432;2024-03-29T02:57:13;99449.06;;;4.12;100.00
74552;BME280;63025;55.472;38.432;2024-03-29T02:59:40;99457.38;;;4.09;100.00
74552;BME280;63025;55.472;38.432;2024-03-29T03:02:05;99455.19;;;4.13;100.00
74552;BME280;63025;55.472;38.432;2024-03-29T03:04:31;99455.38;;;4.11;100.00
74552;BME280;63025;55.472;38.432;2024-03-29T03:06:57;99459.69;;;4.12;100.00
74552;BME280;63025;55.472;38.432;2024-03-29T03:09:43;99453.72;;;4.10;100.00
74552;BME280;63025;55.472;38.432;2024-03-29T03:12:29;99457.22;;;4.11;100.00
74552;BME280;63025;55.472;38.432;2024-03-29T03:14:57;99444.56;;;4.13;100.00
74552;BME280;63025;55.472;38.432;2024-03-29T03:17:23;99441.72;;;4.14;100.00
74552;BME280;63025;55.472;38.432;2024-03-29T03:19:51;99444.56;;;4.13;100.00
74552;BME280;63025;55.472;38.432;2024-03-29T03:22:17;99443.91;;;4.11;100.00
74552;BME280;63025;55.472;38.432;2024-03-29T03:24:43;99438.41;;;4.12;100.00
74552;BME280;63025;55.472;38.432;2024-03-29T03:27:09;99431.09;;;4.14;100.00
74552;BME280;63025;55.472;38.432;2024-03-29T03:29:35;99432.28;;;4.12;100.00
74552;BME280;63025;55.472;38.432;2024-03-29T03:32:01;99431.81;;;4.08;100.00
74552;BME280;63025;55.472;38.432;2024-03-29T03:34:27;99429.25;;;4.15;100.00
74552;BME280;63025;55.472;38.432;2024-03-29T03:36:53;99429.88;;;4.17;100.00
74552;BME280;63025;55.472;38.432;2024-03-29T03:39:19;99419.22;;;4.17;100.00
74552;BME280;63025;55.472;38.432;2024-03-29T03:41:45;99417.97;;;4.13;100.00
74552;BME280;63025;55.472;38.432;2024-03-29T03:44:10;99423.38;;;4.19;100.00
74552;BME280;63025;55.472;38.432;2024-03-29T03:46:36;99424.00;;;4.21;100.00
74552;BME280;63025;55.472;38.432;2024-03-29T03:49:02;99422.19;;;4.22;100.00
74552;BME280;63025;55.472;38.432;2024-03-29T03:51:28;99422.34;;;4.20;100.00
74552;BME280;63025;55.472;38.432;2024-03-29T03:53:54;99421.81;;;4.25;100.00
74552;BME280;63025;55.472;38.432;2024-03-29T03:56:19;99423.66;;;4.24;100.00
74552;BME280;63025;55.472;38.432;2024-03-29T03:58:45;99421.81;;;4.25;100.00
74552;BME280;63025;55.472;38.432;2024-03-29T04:01:11;99428.22;;;4.16;100.00
74552;BME280;63025;55.472;38.432;2024-03-29T04:03:37;99423.00;;;4.22;100.00
74552;BME280;63025;55.472;38.432;2024-03-29T04:06:03;99420.59;;;4.27;100.00
74552;BME280;63025;55.472;38.432;2024-03-29T04:08:29;99425.38;;;4.32;100.00
74552;BME280;63025;55.472;38.432;2024-03-29T04:10:55;99417.13;;;4.41;100.00
74552;BME280;63025;55.472;38.432;2024-03-29T04:13:22;99402.81;;;4.42;100.00
74552;BME280;63025;55.472;38.432;2024-03-29T04:15:48;99405.94;;;4.46;100.00
74552;BME280;63025;55.472;38.432;2024-03-29T04:18:14;99403.06;;;4.48;100.00
74552;BME280;63025;55.472;38.432;2024-03-29T04:20:39;99395.63;;;4.58;100.00
74552;BME280;63025;55.472;38.432;2024-03-29T04:23:06;99391.47;;;4.70;100.00
74552;BME280;63025;55.472;38.432;2024-03-29T04:25:32;99391.09;;;4.73;100.00
74552;BME280;63025;55.472;38.432;2024-03-29T04:28:00;99393.00;;;4.79;100.00
74552;BME280;63025;55.472;38.432;2024-03-29T04:30:26;99380.50;;;4.79;100.00
74552;BME280;63025;55.472;38.432;2024-03-29T04:32:52;99381.34;;;4.80;100.00
74552;BME280;63025;55.472;38.432;2024-03-29T04:35:18;99374.44;;;4.86;100.00
74552;BME280;63025;55.472;38.432;2024-03-29T04:37:44;99372.97;;;4.83;100.00
74552;BME280;63025;55.472;38.432;2024-03-29T04:40:10;99375.50;;;4.91;100.00
74552;BME280;63025;55.472;38.432;2024-03-29T04:42:36;99360.81;;;4.95;100.00
74552;BME280;63025;55.472;38.432;2024-03-29T04:45:02;99350.81;;;4.97;100.00
74552;BME280;63025;55.472;38.432;2024-03-29T04:47:30;99354.28;;;4.98;100.00
74552;BME280;63025;55.472;38.432;2024-03-29T04:49:56;99363.53;;;5.02;100.00
74552;BME280;63025;55.472;38.432;2024-03-29T04:52:21;99357.25;;;5.09;100.00
74552;BME280;63025;55.472;38.432;2024-03-29T04:54:49;99356.22;;;5.10;100.00
74552;BME280;63025;55.472;38.432;2024-03-29T04:57:15;99357.38;;;5.23;100.00
74552;BME280;63025;55.472;38.432;2024-03-29T04:59:41;99348.97;;;5.19;100.00
74552;BME280;63025;55.472;38.432;2024-03-29T05:02:07;99347.16;;;5.26;100.00
74552;BME280;63025;55.472;38.432;2024-03-29T05:04:33;99336.66;;;5.18;100.00
74552;BME280;63025;55.472;38.432;2024-03-29T05:06:58;99329.34;;;5.27;100.00
74552;BME280;63025;55.472;38.432;2024-03-29T05:09:25;99325.50;;;5.36;100.00
74552;BME280;63025;55.472;38.432;2024-03-29T05:11:52;99326.69;;;5.27;100.00
74552;BME280;63025;55.472;38.432;2024-03-29T05:14:20;99319.16;;;5.37;100.00
74552;BME280;63025;55.472;38.432;2024-03-29T05:16:46;99319.03;;;5.45;100.00
74552;BME280;63025;55.472;38.432;2024-03-29T05:19:14;99308.63;;;5.50;100.00
74552;BME280;63025;55.472;38.432;2024-03-29T05:21:41;99319.16;;;5.65;100.00
74552;BME280;63025;55.472;38.432;2024-03-29T05:24:07;99316.13;;;5.74;100.00
74552;BME280;63025;55.472;38.432;2024-03-29T05:26:33;99294.88;;;5.87;100.00
74552;BME280;63025;55.472;38.432;2024-03-29T05:28:59;99291.25;;;5.95;100.00
74552;BME280;63025;55.472;38.432;2024-03-29T05:31:26;99297.22;;;6.04;100.00
74552;BME280;63025;55.472;38.432;2024-03-29T05:33:52;99302.00;;;6.08;100.00
74552;BME280;63025;55.472;38.432;2024-03-29T05:36:18;99297.88;;;6.06;100.00
74552;BME280;63025;55.472;38.432;2024-03-29T05:38:45;99296.63;;;6.02;100.00
74552;BME280;63025;55.472;38.432;2024-03-29T05:41:11;99302.81;;;6.09;100.00
74552;BME280;63025;55.472;38.432;2024-03-29T05:43:40;99294.19;;;6.13;100.00
74552;BME280;63025;55.472;38.432;2024-03-29T05:46:06;99294.75;;;6.02;100.00
74552;BME280;63025;55.472;38.432;2024-03-29T05:48:32;99298.69;;;6.13;100.00
74552;BME280;63025;55.472;38.432;2024-03-29T05:50:58;99314.94;;;6.11;100.00
74552;BME280;63025;55.472;38.432;2024-03-29T05:53:24;99314.56;;;6.21;100.00
74552;BME280;63025;55.472;38.432;2024-03-29T05:55:50;99319.09;;;6.34;100.00
74552;BME280;63025;55.472;38.432;2024-03-29T05:58:16;99311.53;;;6.44;100.00
74552;BME280;63025;55.472;38.432;2024-03-29T06:00:46;99310.97;;;6.55;100.00
74552;BME280;63025;55.472;38.432;2024-03-29T06:03:12;99308.69;;;6.45;100.00
74552;BME280;63025;55.472;38.432;2024-03-29T06:05:41;99296.34;;;6.44;100.00
74552;BME280;63025;55.472;38.432;2024-03-29T06:08:07;99299.44;;;6.41;100.00
74552;BME280;63025;55.472;38.432;2024-03-29T06:10:34;99293.31;;;6.54;100.00
74552;BME280;63025;55.472;38.432;2024-03-29T06:12:59;99297.88;;;6.73;100.00
74552;BME280;63025;55.472;38.432;2024-03-29T06:15:33;99288.81;;;6.68;100.00
74552;BME280;63025;55.472;38.432;2024-03-29T06:18:18;99285.94;;;6.76;100.00
74552;BME280;63025;55.472;38.432;2024-03-29T06:20:47;99282.28;;;6.90;100.00
74552;BME280;63025;55.472;38.432;2024-03-29T06:23:14;99285.16;;;6.88;100.00
74552;BME280;63025;55.472;38.432;2024-03-29T06:25:40;99279.38;;;6.72;100.00
74552;BME280;63025;55.472;38.432;2024-03-29T06:28:06;99284.94;;;6.96;100.00
74552;BME280;63025;55.472;38.432;2024-03-29T06:30:32;99285.59;;;7.05;100.00
74552;BME280;63025;55.472;38.432;2024-03-29T06:32:58;99291.53;;;7.07;100.00
74552;BME280;63025;55.472;38.432;2024-03-29T06:35:27;99296.44;;;6.90;100.00
74552;BME280;63025;55.472;38.432;2024-03-29T06:37:53;99305.09;;;6.99;100.00
74552;BME280;63025;55.472;38.432;2024-03-29T06:40:18;99286.81;;;7.09;100.00
74552;BME280;63025;55.472;38.432;2024-03-29T06:42:44;99299.13;;;6.97;100.00
74552;BME280;63025;55.472;38.432;2024-03-29T06:45:10;99285.38;;;7.13;100.00
74552;BME280;63025;55.472;38.432;2024-03-29T06:47:35;99286.75;;;7.49;100.00
74552;BME280;63025;55.472;38.432;2024-03-29T06:50:01;99281.38;;;7.68;100.00
74552;BME280;63025;55.472;38.432;2024-03-29T06:52:30;99284.41;;;7.98;100.00
74552;BME280;63025;55.472;38.432;2024-03-29T06:54:55;99280.63;;;8.13;100.00
74552;BME280;63025;55.472;38.432;2024-03-29T06:57:21;99281.19;;;8.21;100.00
74552;BME280;63025;55.472;38.432;2024-03-29T06:59:51;99279.59;;;8.14;100.00
74552;BME280;63025;55.472;38.432;2024-03-29T07:02:17;99270.13;;;8.11;100.00
74552;BME280;63025;55.472;38.432;2024-03-29T07:04:43;99282.72;;;8.04;100.00
74552;BME280;63025;55.472;38.432;2024-03-29T07:07:08;99292.03;;;7.88;100.00
74552;BME280;63025;55.472;38.432;2024-03-29T07:09:35;99287.94;;;7.79;100.00
74552;BME280;63025;55.472;38.432;2024-03-29T07:12:01;99278.75;;;7.55;100.00
74552;BME280;63025;55.472;38.432;2024-03-29T07:14:27;99285.94;;;7.55;100.00
74552;BME280;63025;55.472;38.432;2024-03-29T07:16:54;99274.81;;;7.64;100.00
74552;BME280;63025;55.472;38.432;2024-03-29T07:19:21;99280.97;;;7.78;100.00
74552;BME280;63025;55.472;38.432;2024-03-29T07:21:47;99265.72;;;7.85;100.00
74552;BME280;63025;55.472;38.432;2024-03-29T07:24:13;99278.09;;;7.60;100.00
74552;BME280;63025;55.472;38.432;2024-03-29T07:26:39;99257.75;;;7.59;100.00
74552;BME280;63025;55.472;38.432;2024-03-29T07:29:06;99255.91;;;7.59;100.00
74552;BME280;63025;55.472;38.432;2024-03-29T07:31:33;99270.09;;;7.60;100.00
74552;BME280;63025;55.472;38.432;2024-03-29T07:34:00;99267.44;;;7.53;100.00
74552;BME280;63025;55.472;38.432;2024-03-29T07:36:26;99260.25;;;7.54;100.00
74552;BME280;63025;55.472;38.432;2024-03-29T07:38:59;99256.69;;;7.73;100.00
74552;BME280;63025;55.472;38.432;2024-03-29T07:41:26;99263.31;;;7.51;100.00
74552;BME280;63025;55.472;38.432;2024-03-29T07:43:53;99258.00;;;7.37;100.00
74552;BME280;63025;55.472;38.432;2024-03-29T07:46:23;99258.41;;;7.28;100.00
74552;BME280;63025;55.472;38.432;2024-03-29T07:48:49;99260.28;;;7.01;100.00
74552;BME280;63025;55.472;38.432;2024-03-29T07:51:15;99250.22;;;6.83;100.00
74552;BME280;63025;55.472;38.432;2024-03-29T07:53:41;99246.53;;;6.84;100.00
74552;BME280;63025;55.472;38.432;2024-03-29T07:56:07;99251.88;;;6.84;100.00
74552;BME280;63025;55.472;38.432;2024-03-29T07:58:33;99259.88;;;6.91;100.00
74552;BME280;63025;55.472;38.432;2024-03-29T08:00:59;99251.66;;;6.73;100.00
74552;BME280;63025;55.472;38.432;2024-03-29T08:03:24;99248.75;;;6.61;100.00
74552;BME280;63025;55.472;38.432;2024-03-29T08:06:00;99258.63;;;6.67;100.00
74552;BME280;63025;55.472;38.432;2024-03-29T08:08:30;99252.66;;;6.58;100.00
74552;BME280;63025;55.472;38.432;2024-03-29T08:10:56;99241.94;;;6.45;100.00
74552;BME280;63025;55.472;38.432;2024-03-29T08:13:23;99236.59;;;6.39;100.00
74552;BME280;63025;55.472;38.432;2024-03-29T08:15:58;99229.44;;;6.39;100.00
74552;BME280;63025;55.472;38.432;2024-03-29T08:18:25;99224.47;;;6.36;100.00
74552;BME280;63025;55.472;38.432;2024-03-29T08:20:51;99227.34;;;6.28;100.00
74552;BME280;63025;55.472;38.432;2024-03-29T08:23:17;99231.44;;;6.24;100.00
74552;BME280;63025;55.472;38.432;2024-03-29T08:25:43;99233.91;;;6.19;100.00
74552;BME280;63025;55.472;38.432;2024-03-29T08:28:10;99246.41;;;6.25;100.00
74552;BME280;63025;55.472;38.432;2024-03-29T08:30:36;99241.50;;;6.22;100.00
74552;BME280;63025;55.472;38.432;2024-03-29T08:33:02;99229.56;;;6.11;100.00
74552;BME280;63025;55.472;38.432;2024-03-29T08:35:32;99193.44;;;6.09;100.00
74552;BME280;63025;55.472;38.432;2024-03-29T08:38:00;99195.09;;;6.10;100.00
74552;BME280;63025;55.472;38.432;2024-03-29T08:40:27;99201.00;;;6.05;100.00
74552;BME280;63025;55.472;38.432;2024-03-29T08:42:59;99204.94;;;6.09;100.00
74552;BME280;63025;55.472;38.432;2024-03-29T08:45:25;99221.16;;;6.14;100.00
74552;BME280;63025;55.472;38.432;2024-03-29T08:47:51;99221.53;;;6.05;100.00
74552;BME280;63025;55.472;38.432;2024-03-29T08:50:17;99225.41;;;6.02;100.00
74552;BME280;63025;55.472;38.432;2024-03-29T08:52:44;99211.06;;;6.03;100.00
74552;BME280;63025;55.472;38.432;2024-03-29T08:55:10;99230.09;;;5.94;100.00
74552;BME280;63025;55.472;38.432;2024-03-29T08:57:36;99227.44;;;5.94;100.00
74552;BME280;63025;55.472;38.432;2024-03-29T09:00:02;99229.72;;;5.97;100.00
74552;BME280;63025;55.472;38.432;2024-03-29T09:02:30;99229.72;;;5.97;100.00
74552;BME280;63025;55.472;38.432;2024-03-29T09:04:56;99236.31;;;6.01;100.00
74552;BME280;63025;55.472;38.432;2024-03-29T09:07:23;99240.56;;;5.95;100.00
74552;BME280;63025;55.472;38.432;2024-03-29T09:09:50;99235.69;;;5.99;100.00
74552;BME280;63025;55.472;38.432;2024-03-29T09:12:16;99236.31;;;6.01;100.00
74552;BME280;63025;55.472;38.432;2024-03-29T09:14:47;99235.28;;;6.02;100.00
74552;BME280;63025;55.472;38.432;2024-03-29T09:17:13;99230.34;;;6.05;100.00
74552;BME280;63025;55.472;38.432;2024-03-29T09:19:39;99234.91;;;6.18;100.00
74552;BME280;63025;55.472;38.432;2024-03-29T09:22:05;99213.53;;;6.05;100.00
74552;BME280;63025;55.472;38.432;2024-03-29T09:24:31;99219.88;;;6.04;100.00
74552;BME280;63025;55.472;38.432;2024-03-29T09:27:00;99217.59;;;5.94;100.00
74552;BME280;63025;55.472;38.432;2024-03-29T09:29:26;99199.56;;;6.03;100.00
74552;BME280;63025;55.472;38.432;2024-03-29T09:31:52;99194.25;;;6.09;100.00
74552;BME280;63025;55.472;38.432;2024-03-29T09:34:18;99200.81;;;6.00;100.00
74552;BME280;63025;55.472;38.432;2024-03-29T09:36:43;99196.69;;;5.91;100.00
74552;BME280;63025;55.472;38.432;2024-03-29T09:39:09;99193.19;;;5.91;100.00
74552;BME280;63025;55.472;38.432;2024-03-29T09:41:36;99195.03;;;5.90;100.00
74552;BME280;63025;55.472;38.432;2024-03-29T09:44:05;99192.72;;;5.87;100.00
74552;BME280;63025;55.472;38.432;2024-03-29T09:46:33;99193.31;;;5.76;100.00
74552;BME280;63025;55.472;38.432;2024-03-29T09:49:01;99183.22;;;5.65;100.00
74552;BME280;63025;55.472;38.432;2024-03-29T09:51:28;99186.69;;;5.65;100.00
74552;BME280;63025;55.472;38.432;2024-03-29T09:53:55;99192.47;;;5.75;100.00
74552;BME280;63025;55.472;38.432;2024-03-29T09:56:25;99206.44;;;5.77;100.00
74552;BME280;63025;55.472;38.432;2024-03-29T09:58:51;99186.84;;;5.92;100.00
74552;BME280;63025;55.472;38.432;2024-03-29T10:01:17;99182.38;;;6.12;100.00
74552;BME280;63025;55.472;38.432;2024-03-29T10:03:47;99182.38;;;6.12;100.00
74552;BME280;63025;55.472;38.432;2024-03-29T10:06:14;99186.66;;;6.00;100.00
74552;BME280;63025;55.472;38.432;2024-03-29T10:08:40;99198.16;;;6.07;100.00
74552;BME280;63025;55.472;38.432;2024-03-29T10:11:06;99197.34;;;6.13;100.00
74552;BME280;63025;55.472;38.432;2024-03-29T10:13:32;99195.50;;;6.13;100.00
74552;BME280;63025;55.472;38.432;2024-03-29T10:16:00;99186.41;;;5.95;100.00
74552;BME280;63025;55.472;38.432;2024-03-29T10:18:28;99188.69;;;5.98;100.00
74552;BME280;63025;55.472;38.432;2024-03-29T10:21:00;99194.03;;;5.98;100.00
74552;BME280;63025;55.472;38.432;2024-03-29T10:23:27;99187.84;;;5.91;100.00
74552;BME280;63025;55.472;38.432;2024-03-29T10:25:53;99193.13;;;5.84;100.00
74552;BME280;63025;55.472;38.432;2024-03-29T10:28:19;99190.09;;;5.94;100.00
74552;BME280;63025;55.472;38.432;2024-03-29T10:30:45;99172.69;;;5.98;100.00
74552;BME280;63025;55.472;38.432;2024-03-29T10:33:12;99170.06;;;6.11;100.00
74552;BME280;63025;55.472;38.432;2024-03-29T10:35:42;99177.25;;;6.17;100.00
74552;BME280;63025;55.472;38.432;2024-03-29T10:38:09;99178.09;;;6.44;100.00
74552;BME280;63025;55.472;38.432;2024-03-29T10:40:38;99170.53;;;6.60;100.00
74552;BME280;63025;55.472;38.432;2024-03-29T10:43:10;99179.94;;;6.56;100.00
74552;BME280;63025;55.472;38.432;2024-03-29T10:45:38;99167.63;;;6.69;100.00
74552;BME280;63025;55.472;38.432;2024-03-29T10:48:05;99175.81;;;7.13;100.00
74552;BME280;63025;55.472;38.432;2024-03-29T10:50:37;99162.63;;;7.31;100.00
74552;BME280;63025;55.472;38.432;2024-03-29T10:53:05;99160.72;;;7.45;100.00
74552;BME280;63025;55.472;38.432;2024-03-29T10:55:34;99156.66;;;7.29;100.00
74552;BME280;63025;55.472;38.432;2024-03-29T10:58:01;99163.66;;;7.30;100.00
74552;BME280;63025;55.472;38.432;2024-03-29T11:00:29;99156.75;;;7.61;100.00
74552;BME280;63025;55.472;38.432;2024-03-29T11:03:18;99155.41;;;7.83;100.00
74552;BME280;63025;55.472;38.432;2024-03-29T11:05:47;99151.28;;;7.87;100.00
74552;BME280;63025;55.472;38.432;2024-03-29T11:08:20;99150.88;;;7.84;100.00
74552;BME280;63025;55.472;38.432;2024-03-29T11:10:49;99152.41;;;8.04;100.00
74552;BME280;63025;55.472;38.432;2024-03-29T11:15:49;99148.34;;;8.33;100.00
74552;BME280;63025;55.472;38.432;2024-03-29T11:18:17;99141.53;;;8.87;100.00
74552;BME280;63025;55.472;38.432;2024-03-29T11:20:48;99146.31;;;9.03;100.00
74552;BME280;63025;55.472;38.432;2024-03-29T11:23:19;99132.03;;;9.28;100.00
74552;BME280;63025;55.472;38.432;2024-03-29T11:25:49;99121.41;;;9.69;100.00
74552;BME280;63025;55.472;38.432;2024-03-29T11:28:34;99117.22;;;10.21;100.00
74552;BME280;63025;55.472;38.432;2024-03-29T11:31:06;99113.28;;;11.29;100.00
74552;BME280;63025;55.472;38.432;2024-03-29T11:33:44;99109.16;;;11.90;100.00
74552;BME280;63025;55.472;38.432;2024-03-29T11:36:28;99107.09;;;12.75;100.00
74552;BME280;63025;55.472;38.432;2024-03-29T11:38:57;99103.28;;;13.27;93.36
74552;BME280;63025;55.472;38.432;2024-03-29T11:41:26;99102.03;;;13.56;83.10
74552;BME280;63025;55.472;38.432;2024-03-29T11:43:54;99097.31;;;14.49;76.90
74552;BME280;63025;55.472;38.432;2024-03-29T11:46:20;99100.53;;;14.46;70.26
74552;BME280;63025;55.472;38.432;2024-03-29T11:48:47;99100.97;;;14.38;67.85
74552;BME280;63025;55.472;38.432;2024-03-29T11:51:16;99111.34;;;15.72;65.27
74552;BME280;63025;55.472;38.432;2024-03-29T11:53:44;99114.72;;;14.31;62.39
74552;BME280;63025;55.472;38.432;2024-03-29T11:56:10;99111.16;;;13.99;63.78
74552;BME280;63025;55.472;38.432;2024-03-29T11:58:40;99112.22;;;14.24;65.09
74552;BME280;63025;55.472;38.432;2024-03-29T12:01:07;99120.22;;;13.87;64.05
74552;BME280;63025;55.472;38.432;2024-03-29T12:03:40;99122.41;;;13.90;63.91
74552;BME280;63025;55.472;38.432;2024-03-29T12:06:07;99122.81;;;14.04;64.28
74552;BME280;63025;55.472;38.432;2024-03-29T12:08:35;99113.78;;;13.93;64.56
74552;BME280;63025;55.472;38.432;2024-03-29T12:11:02;99122.41;;;14.76;63.14
74552;BME280;63025;55.472;38.432;2024-03-29T12:13:29;99115.13;;;15.19;60.51
74552;BME280;63025;55.472;38.432;2024-03-29T12:15:56;99114.09;;;15.30;58.51
74552;BME280;63025;55.472;38.432;2024-03-29T12:18:23;99116.13;;;15.02;57.10
74552;BME280;63025;55.472;38.432;2024-03-29T12:20:50;99104.59;;;15.27;57.48
74552;BME280;63025;55.472;38.432;2024-03-29T12:23:17;99117.72;;;14.61;56.81
74552;BME280;63025;55.472;38.432;2024-03-29T12:25:44;99117.88;;;14.82;57.77
74552;BME280;63025;55.472;38.432;2024-03-29T12:28:11;99122.81;;;14.58;57.05
74552;BME280;63025;55.472;38.432;2024-03-29T12:30:40;99116.34;;;14.32;58.43
74552;BME280;63025;55.472;38.432;2024-03-29T12:33:14;99122.72;;;13.72;59.71
74552;BME280;63025;55.472;38.432;2024-03-29T12:35:44;99120.84;;;13.51;62.51
74552;BME280;63025;55.472;38.432;2024-03-29T12:38:12;99121.78;;;13.01;65.00
74552;BME280;63025;55.472;38.432;2024-03-29T12:40:41;99115.16;;;13.96;67.23
74552;BME280;63025;55.472;38.432;2024-03-29T12:43:10;99110.41;;;14.99;62.29
74552;BME280;63025;55.472;38.432;2024-03-29T12:45:40;99109.03;;;15.49;59.48
74552;BME280;63025;55.472;38.432;2024-03-29T12:48:15;99113.59;;;16.05;56.20
74552;BME280;63025;55.472;38.432;2024-03-29T12:50:41;99101.78;;;15.54;54.88
74552;BME280;63025;55.472;38.432;2024-03-29T12:53:09;99107.31;;;15.90;54.70